sensor_id;sensor_type;location;lat;lon;timestamp;pressure;altitude;pressure_sealevel;temperature;humidity
69737;BME280;64476;55.004;73.342;2023-09-12T00:01:05;99820.91;;;7.19;59.51
69737;BME280;64476;55.004;73.342;2023-09-12T00:04:06;99816.00;;;7.16;59.28
69737;BME280;64476;55.004;73.342;2023-09-12T00:07:08;99826.09;;;7.11;59.30
69737;BME280;64476;55.004;73.342;2023-09-12T00:10:09;99829.66;;;7.02;59.83
69737;BME280;64476;55.004;73.342;2023-09-12T00:13:11;99830.25;;;6.96;59.88
69737;BME280;64476;55.004;73.342;2023-09-12T00:16:12;99816.84;;;6.91;59.64
69737;BME280;64476;55.004;73.342;2023-09-12T00:19:13;99820.56;;;6.88;59.65
69737;BME280;64476;55.004;73.342;2023-09-12T00:22:16;99825.13;;;6.86;59.65
69737;BME280;64476;55.004;73.342;2023-09-12T00:25:17;99834.09;;;6.83;60.00
69737;BME280;64476;55.004;73.342;2023-09-12T00:28:19;99837.66;;;6.82;60.06
69737;BME280;64476;55.004;73.342;2023-09-12T00:31:21;99836.03;;;6.81;60.20
69737;BME280;64476;55.004;73.342;2023-09-12T00:34:27;99837.63;;;6.74;60.04
69737;BME280;64476;55.004;73.342;2023-09-12T00:37:28;99844.63;;;6.74;60.02
69737;BME280;64476;55.004;73.342;2023-09-12T00:40:29;99844.63;;;6.74;59.96
69737;BME280;64476;55.004;73.342;2023-09-12T00:43:31;99850.31;;;6.69;60.22
69737;BME280;64476;55.004;73.342;2023-09-12T00:46:34;99856.13;;;6.63;60.00
69737;BME280;64476;55.004;73.342;2023-09-12T00:49:36;99863.31;;;6.61;60.38
69737;BME280;64476;55.004;73.342;2023-09-12T00:52:37;99861.66;;;6.60;60.10
69737;BME280;64476;55.004;73.342;2023-09-12T00:55:42;99867.84;;;6.59;60.03
69737;BME280;64476;55.004;73.342;2023-09-12T00:58:55;99866.34;;;6.56;60.59
69737;BME280;64476;55.004;73.342;2023-09-12T01:02:01;99865.72;;;6.54;61.01
69737;BME280;64476;55.004;73.342;2023-09-12T01:05:36;99871.38;;;6.50;60.45
69737;BME280;64476;55.004;73.342;2023-09-12T01:12:10;99863.84;;;6.47;60.86
69737;BME280;64476;55.004;73.342;2023-09-12T01:15:51;99859.63;;;6.46;60.87
69737;BME280;64476;55.004;73.342;2023-09-12T01:18:55;99867.28;;;6.47;59.95
69737;BME280;64476;55.004;73.342;2023-09-12T01:29:14;99859.28;;;6.49;59.56
69737;BME280;64476;55.004;73.342;2023-09-12T01:32:20;99871.38;;;6.50;60.23
69737;BME280;64476;55.004;73.342;2023-09-12T01:35:22;99875.63;;;6.51;60.25
69737;BME280;64476;55.004;73.342;2023-09-12T01:38:23;99870.25;;;6.52;59.69
69737;BME280;64476;55.004;73.342;2023-09-12T01:41:25;99868.31;;;6.54;60.38
69737;BME280;64476;55.004;73.342;2023-09-12T01:44:27;99871.06;;;6.53;59.46
69737;BME280;64476;55.004;73.342;2023-09-12T01:47:29;99865.72;;;6.54;59.63
69737;BME280;64476;55.004;73.342;2023-09-12T01:50:31;99868.16;;;6.56;59.77
69737;BME280;64476;55.004;73.342;2023-09-12T01:53:32;99863.16;;;6.62;59.41
69737;BME280;64476;55.004;73.342;2023-09-12T01:57:06;99859.28;;;6.67;59.13
69737;BME280;64476;55.004;73.342;2023-09-12T02:00:07;99865.00;;;6.70;59.13
69737;BME280;64476;55.004;73.342;2023-09-12T02:03:10;99868.44;;;6.71;58.52
69737;BME280;64476;55.004;73.342;2023-09-12T02:06:11;99870.63;;;6.75;58.25
69737;BME280;64476;55.004;73.342;2023-09-12T02:09:12;99865.91;;;6.79;59.30
69737;BME280;64476;55.004;73.342;2023-09-12T02:12:14;99868.69;;;6.85;58.46
69737;BME280;64476;55.004;73.342;2023-09-12T02:15:15;99867.28;;;6.91;57.76
69737;BME280;64476;55.004;73.342;2023-09-12T02:18:16;99861.91;;;6.93;58.00
69737;BME280;64476;55.004;73.342;2023-09-12T02:21:23;99853.34;;;6.82;57.80
69737;BME280;64476;55.004;73.342;2023-09-12T02:24:26;99861.28;;;6.99;57.54
69737;BME280;64476;55.004;73.342;2023-09-12T02:27:27;99862.31;;;7.06;56.87
69737;BME280;64476;55.004;73.342;2023-09-12T02:30:28;99864.16;;;7.13;56.96
69737;BME280;64476;55.004;73.342;2023-09-12T02:33:30;99868.28;;;7.16;56.71
69737;BME280;64476;55.004;73.342;2023-09-12T02:36:31;99859.66;;;7.24;56.78
69737;BME280;64476;55.004;73.342;2023-09-12T02:39:33;99863.41;;;7.29;56.08
69737;BME280;64476;55.004;73.342;2023-09-12T02:42:34;99853.84;;;7.38;56.49
69737;BME280;64476;55.004;73.342;2023-09-12T02:45:36;99857.13;;;7.48;56.72
69737;BME280;64476;55.004;73.342;2023-09-12T02:48:37;99860.97;;;7.62;55.26
69737;BME280;64476;55.004;73.342;2023-09-12T02:51:39;99853.00;;;7.80;55.38
69737;BME280;64476;55.004;73.342;2023-09-12T02:58:13;99855.56;;;8.14;54.92
69737;BME280;64476;55.004;73.342;2023-09-12T03:01:17;99868.69;;;8.30;53.66
69737;BME280;64476;55.004;73.342;2023-09-12T03:04:26;99855.78;;;8.45;54.09
69737;BME280;64476;55.004;73.342;2023-09-12T03:07:29;99860.84;;;8.63;53.36
69737;BME280;64476;55.004;73.342;2023-09-12T03:10:31;99857.91;;;8.74;52.15
69737;BME280;64476;55.004;73.342;2023-09-12T03:13:33;99859.03;;;8.80;51.82
69737;BME280;64476;55.004;73.342;2023-09-12T03:16:34;99866.53;;;8.91;52.32
69737;BME280;64476;55.004;73.342;2023-09-12T03:19:38;99867.84;;;9.03;52.38
69737;BME280;64476;55.004;73.342;2023-09-12T03:22:39;99869.97;;;9.08;51.34
69737;BME280;64476;55.004;73.342;2023-09-12T03:25:42;99869.94;;;9.16;51.37
69737;BME280;64476;55.004;73.342;2023-09-12T03:29:15;99878.47;;;9.26;50.74
69737;BME280;64476;55.004;73.342;2023-09-12T03:32:16;99864.34;;;9.36;50.75
69737;BME280;64476;55.004;73.342;2023-09-12T03:35:18;99865.78;;;9.46;51.12
69737;BME280;64476;55.004;73.342;2023-09-12T03:38:19;99870.03;;;9.56;50.26
69737;BME280;64476;55.004;73.342;2023-09-12T03:41:21;99868.50;;;9.61;51.65
69737;BME280;64476;55.004;73.342;2023-09-12T03:44:27;99878.81;;;9.71;50.08
69737;BME280;64476;55.004;73.342;2023-09-12T03:47:29;99856.16;;;9.78;49.90
69737;BME280;64476;55.004;73.342;2023-09-12T03:50:30;99865.47;;;9.81;49.10
69737;BME280;64476;55.004;73.342;2023-09-12T03:53:32;99863.78;;;9.88;49.55
69737;BME280;64476;55.004;73.342;2023-09-12T03:56:33;99864.72;;;9.95;49.75
69737;BME280;64476;55.004;73.342;2023-09-12T03:59:34;99867.50;;;10.01;49.61
69737;BME280;64476;55.004;73.342;2023-09-12T04:02:36;99864.19;;;10.08;48.77
69737;BME280;64476;55.004;73.342;2023-09-12T04:05:37;99850.34;;;10.14;49.75
69737;BME280;64476;55.004;73.342;2023-09-12T04:08:38;99857.38;;;10.21;49.41
69737;BME280;64476;55.004;73.342;2023-09-12T04:11:42;99871.25;;;10.30;48.89
69737;BME280;64476;55.004;73.342;2023-09-12T04:14:44;99856.78;;;10.34;48.24
69737;BME280;64476;55.004;73.342;2023-09-12T04:17:45;99855.09;;;10.41;47.99
69737;BME280;64476;55.004;73.342;2023-09-12T04:20:46;99855.34;;;10.46;47.60
69737;BME280;64476;55.004;73.342;2023-09-12T04:23:55;99858.94;;;10.54;47.52
69737;BME280;64476;55.004;73.342;2023-09-12T04:26:56;99867.59;;;10.62;48.37
69737;BME280;64476;55.004;73.342;2023-09-12T04:29:57;99856.72;;;10.65;47.21
69737;BME280;64476;55.004;73.342;2023-09-12T04:32:59;99862.06;;;10.72;47.30
69737;BME280;64476;55.004;73.342;2023-09-12T04:36:00;99848.59;;;10.75;47.71
69737;BME280;64476;55.004;73.342;2023-09-12T04:39:02;99843.91;;;10.85;47.86
69737;BME280;64476;55.004;73.342;2023-09-12T04:42:04;99835.47;;;10.90;46.81
69737;BME280;64476;55.004;73.342;2023-09-12T04:45:07;99841.47;;;10.98;47.32
69737;BME280;64476;55.004;73.342;2023-09-12T04:48:09;99861.78;;;11.05;46.08
69737;BME280;64476;55.004;73.342;2023-09-12T04:51:10;99850.91;;;11.08;45.71
69737;BME280;64476;55.004;73.342;2023-09-12T04:54:12;99855.25;;;11.15;45.47
69737;BME280;64476;55.004;73.342;2023-09-12T04:57:14;99847.47;;;11.22;44.81
69737;BME280;64476;55.004;73.342;2023-09-12T05:00:15;99841.50;;;11.28;45.31
69737;BME280;64476;55.004;73.342;2023-09-12T05:03:17;99847.19;;;11.32;45.13
69737;BME280;64476;55.004;73.342;2023-09-12T05:06:23;99842.81;;;11.39;44.92
69737;BME280;64476;55.004;73.342;2023-09-12T05:13:09;99846.66;;;11.66;45.12
69737;BME280;64476;55.004;73.342;2023-09-12T05:16:11;99851.16;;;11.72;43.53
69737;BME280;64476;55.004;73.342;2023-09-12T05:19:13;99841.06;;;11.76;44.14
69737;BME280;64476;55.004;73.342;2023-09-12T05:22:14;99831.06;;;11.86;44.70
69737;BME280;64476;55.004;73.342;2023-09-12T05:25:16;99825.13;;;11.99;43.47
69737;BME280;64476;55.004;73.342;2023-09-12T05:28:18;99834.97;;;12.11;43.35
69737;BME280;64476;55.004;73.342;2023-09-12T05:31:23;99843.63;;;12.27;43.28
69737;BME280;64476;55.004;73.342;2023-09-12T05:34:26;99827.31;;;12.38;42.69
69737;BME280;64476;55.004;73.342;2023-09-12T05:37:47;99841.63;;;12.50;42.29
69737;BME280;64476;55.004;73.342;2023-09-12T05:40:49;99839.47;;;12.60;42.22
69737;BME280;64476;55.004;73.342;2023-09-12T05:44:23;99829.59;;;12.69;41.78
69737;BME280;64476;55.004;73.342;2023-09-12T05:47:45;99832.34;;;12.76;42.23
69737;BME280;64476;55.004;73.342;2023-09-12T05:50:46;99831.97;;;12.85;43.38
69737;BME280;64476;55.004;73.342;2023-09-12T05:53:55;99839.41;;;13.03;42.24
69737;BME280;64476;55.004;73.342;2023-09-12T05:56:57;99839.44;;;13.10;42.65
69737;BME280;64476;55.004;73.342;2023-09-12T05:59:58;99844.13;;;13.14;42.46
69737;BME280;64476;55.004;73.342;2023-09-12T06:03:14;99847.03;;;13.20;41.86
69737;BME280;64476;55.004;73.342;2023-09-12T06:06:15;99850.97;;;13.44;43.63
69737;BME280;64476;55.004;73.342;2023-09-12T06:09:17;99842.72;;;13.53;42.36
69737;BME280;64476;55.004;73.342;2023-09-12T06:12:18;99834.78;;;13.53;42.01
69737;BME280;64476;55.004;73.342;2023-09-12T06:15:23;99850.03;;;13.58;42.54
69737;BME280;64476;55.004;73.342;2023-09-12T06:18:26;99849.47;;;13.69;43.42
69737;BME280;64476;55.004;73.342;2023-09-12T06:21:59;99860.50;;;13.79;41.73
69737;BME280;64476;55.004;73.342;2023-09-12T06:25:01;99845.13;;;14.03;42.40
69737;BME280;64476;55.004;73.342;2023-09-12T06:31:37;99836.63;;;14.47;40.66
69737;BME280;64476;55.004;73.342;2023-09-12T06:34:39;99843.16;;;14.58;41.14
69737;BME280;64476;55.004;73.342;2023-09-12T06:37:40;99830.94;;;14.70;40.37
69737;BME280;64476;55.004;73.342;2023-09-12T06:40:56;99828.72;;;14.87;40.84
69737;BME280;64476;55.004;73.342;2023-09-12T06:43:58;99832.56;;;14.91;40.96
69737;BME280;64476;55.004;73.342;2023-09-12T06:46:59;99829.53;;;14.88;40.25
69737;BME280;64476;55.004;73.342;2023-09-12T06:50:01;99826.09;;;14.80;39.84
69737;BME280;64476;55.004;73.342;2023-09-12T06:53:04;99822.41;;;14.62;40.54
69737;BME280;64476;55.004;73.342;2023-09-12T06:56:08;99832.97;;;14.55;38.95
69737;BME280;64476;55.004;73.342;2023-09-12T06:59:09;99824.84;;;14.70;39.48
69737;BME280;64476;55.004;73.342;2023-09-12T07:02:13;99814.91;;;14.78;40.12
69737;BME280;64476;55.004;73.342;2023-09-12T07:05:19;99814.09;;;14.78;40.29
69737;BME280;64476;55.004;73.342;2023-09-12T07:08:24;99816.94;;;14.76;39.27
69737;BME280;64476;55.004;73.342;2023-09-12T07:11:25;99804.09;;;14.93;39.27
69737;BME280;64476;55.004;73.342;2023-09-12T07:14:27;99799.91;;;15.30;38.44
69737;BME280;64476;55.004;73.342;2023-09-12T07:17:31;99797.16;;;15.57;38.93
69737;BME280;64476;55.004;73.342;2023-09-12T07:20:33;99804.06;;;15.58;37.93
69737;BME280;64476;55.004;73.342;2023-09-12T07:23:35;99797.81;;;15.46;38.74
69737;BME280;64476;55.004;73.342;2023-09-12T07:26:36;99801.75;;;15.30;37.95
69737;BME280;64476;55.004;73.342;2023-09-12T07:29:37;99809.47;;;15.38;37.91
69737;BME280;64476;55.004;73.342;2023-09-12T07:32:39;99816.91;;;15.54;38.66
69737;BME280;64476;55.004;73.342;2023-09-12T07:35:40;99819.25;;;15.38;38.17
69737;BME280;64476;55.004;73.342;2023-09-12T07:38:42;99813.81;;;15.13;38.88
69737;BME280;64476;55.004;73.342;2023-09-12T07:41:46;99831.78;;;14.84;40.06
69737;BME280;64476;55.004;73.342;2023-09-12T07:44:47;99820.16;;;14.85;39.30
69737;BME280;64476;55.004;73.342;2023-09-12T07:47:49;99820.38;;;14.97;39.83
69737;BME280;64476;55.004;73.342;2023-09-12T07:50:51;99823.41;;;15.00;39.16
69737;BME280;64476;55.004;73.342;2023-09-12T07:53:55;99809.59;;;14.92;39.93
69737;BME280;64476;55.004;73.342;2023-09-12T07:56:58;99800.25;;;14.89;39.60
69737;BME280;64476;55.004;73.342;2023-09-12T08:00:00;99811.00;;;15.01;39.04
69737;BME280;64476;55.004;73.342;2023-09-12T08:03:01;99813.44;;;15.02;40.05
69737;BME280;64476;55.004;73.342;2023-09-12T08:06:03;99814.03;;;15.11;41.74
69737;BME280;64476;55.004;73.342;2023-09-12T08:09:04;99814.44;;;15.15;40.58
69737;BME280;64476;55.004;73.342;2023-09-12T08:12:06;99811.28;;;15.38;41.10
69737;BME280;64476;55.004;73.342;2023-09-12T08:18:55;99813.81;;;15.71;40.75
69737;BME280;64476;55.004;73.342;2023-09-12T08:22:00;99804.69;;;15.67;40.10
69737;BME280;64476;55.004;73.342;2023-09-12T08:25:02;99815.56;;;15.39;39.26
69737;BME280;64476;55.004;73.342;2023-09-12T08:28:04;99809.69;;;15.30;40.60
69737;BME280;64476;55.004;73.342;2023-09-12T08:31:07;99814.19;;;15.23;40.86
69737;BME280;64476;55.004;73.342;2023-09-12T08:34:08;99809.72;;;15.23;40.91
69737;BME280;64476;55.004;73.342;2023-09-12T08:37:12;99809.66;;;15.37;40.55
69737;BME280;64476;55.004;73.342;2023-09-12T08:40:13;99816.34;;;15.46;40.36
69737;BME280;64476;55.004;73.342;2023-09-12T08:43:15;99816.34;;;15.46;39.38
69737;BME280;64476;55.004;73.342;2023-09-12T08:46:17;99814.50;;;15.46;40.13
69737;BME280;64476;55.004;73.342;2023-09-12T08:49:19;99812.88;;;15.52;40.42
69737;BME280;64476;55.004;73.342;2023-09-12T08:52:20;99821.00;;;15.50;39.61
69737;BME280;64476;55.004;73.342;2023-09-12T08:55:24;99816.97;;;15.48;40.79
69737;BME280;64476;55.004;73.342;2023-09-12T08:58:25;99821.66;;;15.46;40.01
69737;BME280;64476;55.004;73.342;2023-09-12T09:01:27;99827.59;;;15.35;38.97
69737;BME280;64476;55.004;73.342;2023-09-12T09:08:06;99825.31;;;15.45;39.40
69737;BME280;64476;55.004;73.342;2023-09-12T09:11:39;99817.94;;;15.53;40.86
69737;BME280;64476;55.004;73.342;2023-09-12T09:14:40;99825.66;;;15.55;39.65
69737;BME280;64476;55.004;73.342;2023-09-12T09:17:43;99814.25;;;15.54;38.94
69737;BME280;64476;55.004;73.342;2023-09-12T09:21:18;99831.19;;;15.53;39.83
69737;BME280;64476;55.004;73.342;2023-09-12T09:24:20;99833.66;;;15.48;40.56
69737;BME280;64476;55.004;73.342;2023-09-12T09:27:32;99839.59;;;15.37;39.54
69737;BME280;64476;55.004;73.342;2023-09-12T09:30:42;99830.06;;;15.29;40.11
69737;BME280;64476;55.004;73.342;2023-09-12T09:33:44;99839.00;;;15.28;40.35
69737;BME280;64476;55.004;73.342;2023-09-12T09:36:53;99819.09;;;15.19;40.54
69737;BME280;64476;55.004;73.342;2023-09-12T09:39:54;99834.09;;;15.32;40.72
69737;BME280;64476;55.004;73.342;2023-09-12T09:42:58;99840.81;;;15.35;40.67
69737;BME280;64476;55.004;73.342;2023-09-12T09:46:03;99832.88;;;15.35;40.36
69737;BME280;64476;55.004;73.342;2023-09-12T09:49:09;99835.13;;;15.31;40.06
69737;BME280;64476;55.004;73.342;2023-09-12T09:52:16;99837.38;;;15.27;40.62
69737;BME280;64476;55.004;73.342;2023-09-12T09:55:26;99835.31;;;15.36;40.07
69737;BME280;64476;55.004;73.342;2023-09-12T09:58:27;99843.47;;;15.41;39.73
69737;BME280;64476;55.004;73.342;2023-09-12T10:01:29;99841.19;;;15.45;39.99
69737;BME280;64476;55.004;73.342;2023-09-12T10:04:31;99833.03;;;15.46;40.41
69737;BME280;64476;55.004;73.342;2023-09-12T10:07:33;99840.19;;;15.46;40.23
69737;BME280;64476;55.004;73.342;2023-09-12T10:10:35;99851.00;;;15.38;40.44
69737;BME280;64476;55.004;73.342;2023-09-12T10:13:37;99844.09;;;15.30;41.18
69737;BME280;64476;55.004;73.342;2023-09-12T10:16:44;99851.41;;;15.41;40.20
69737;BME280;64476;55.004;73.342;2023-09-12T10:19:51;99845.44;;;15.52;39.98
69737;BME280;64476;55.004;73.342;2023-09-12T10:25:56;99848.50;;;15.56;39.52
69737;BME280;64476;55.004;73.342;2023-09-12T10:28:58;99844.81;;;15.57;39.93
69737;BME280;64476;55.004;73.342;2023-09-12T10:32:00;99847.47;;;15.57;39.70
69737;BME280;64476;55.004;73.342;2023-09-12T10:35:02;99851.97;;;15.63;40.03
69737;BME280;64476;55.004;73.342;2023-09-12T10:38:05;99860.91;;;15.62;40.37
69737;BME280;64476;55.004;73.342;2023-09-12T10:41:09;99856.44;;;15.56;40.19
69737;BME280;64476;55.004;73.342;2023-09-12T10:44:17;99856.69;;;15.48;40.31
69737;BME280;64476;55.004;73.342;2023-09-12T10:47:19;99862.00;;;15.41;40.62
69737;BME280;64476;55.004;73.342;2023-09-12T10:50:21;99866.06;;;15.37;40.86
69737;BME280;64476;55.004;73.342;2023-09-12T10:53:22;99860.34;;;15.40;41.03
69737;BME280;64476;55.004;73.342;2023-09-12T10:56:28;99867.47;;;15.40;41.15
69737;BME280;64476;55.004;73.342;2023-09-12T10:59:34;99871.53;;;15.42;41.05
69737;BME280;64476;55.004;73.342;2023-09-12T11:02:43;99870.50;;;15.43;41.11
69737;BME280;64476;55.004;73.342;2023-09-12T11:05:52;99867.06;;;15.43;40.74
69737;BME280;64476;55.004;73.342;2023-09-12T11:09:28;99864.38;;;15.56;40.66
69737;BME280;64476;55.004;73.342;2023-09-12T11:12:34;99873.31;;;15.62;40.47
69737;BME280;64476;55.004;73.342;2023-09-12T11:15:36;99871.09;;;15.65;40.65
69737;BME280;64476;55.004;73.342;2023-09-12T11:22:00;99864.84;;;15.91;39.78
69737;BME280;64476;55.004;73.342;2023-09-12T11:25:05;99873.88;;;16.22;39.74
69737;BME280;64476;55.004;73.342;2023-09-12T11:28:16;99869.59;;;16.46;38.66
69737;BME280;64476;55.004;73.342;2023-09-12T11:31:26;99880.03;;;16.97;38.08
69737;BME280;64476;55.004;73.342;2023-09-12T11:34:27;99883.84;;;17.02;38.20
69737;BME280;64476;55.004;73.342;2023-09-12T11:37:29;99876.81;;;16.70;38.26
69737;BME280;64476;55.004;73.342;2023-09-12T11:43:37;99892.13;;;15.98;39.96
69737;BME280;64476;55.004;73.342;2023-09-12T11:46:39;99900.19;;;15.78;40.62
69737;BME280;64476;55.004;73.342;2023-09-12T11:49:41;99895.94;;;15.71;40.67
69737;BME280;64476;55.004;73.342;2023-09-12T11:52:43;99888.59;;;15.60;40.98
69737;BME280;64476;55.004;73.342;2023-09-12T11:55:45;99896.34;;;15.54;40.61
69737;BME280;64476;55.004;73.342;2023-09-12T11:58:55;99888.63;;;15.46;40.89
69737;BME280;64476;55.004;73.342;2023-09-12T12:01:56;99885.00;;;15.41;41.12
69737;BME280;64476;55.004;73.342;2023-09-12T12:04:58;99898.03;;;15.29;41.18
69737;BME280;64476;55.004;73.342;2023-09-12T12:08:00;99903.97;;;15.18;41.56
69737;BME280;64476;55.004;73.342;2023-09-12T12:11:01;99905.41;;;15.07;41.74
69737;BME280;64476;55.004;73.342;2023-09-12T12:14:36;99897.50;;;15.00;41.97
69737;BME280;64476;55.004;73.342;2023-09-12T12:17:30;99903.38;;;14.96;41.97
69737;BME280;64476;55.004;73.342;2023-09-12T12:20:31;99911.34;;;14.89;42.25
69737;BME280;64476;55.004;73.342;2023-09-12T12:23:33;99910.13;;;14.78;42.57
69737;BME280;64476;55.004;73.342;2023-09-12T12:26:37;99910.28;;;14.64;42.89
69737;BME280;64476;55.004;73.342;2023-09-12T12:29:43;99921.03;;;14.55;43.21
69737;BME280;64476;55.004;73.342;2023-09-12T12:32:46;99925.72;;;14.53;43.42
69737;BME280;64476;55.004;73.342;2023-09-12T12:35:48;99909.63;;;14.48;43.66
69737;BME280;64476;55.004;73.342;2023-09-12T12:38:54;99916.16;;;14.46;43.81
69737;BME280;64476;55.004;73.342;2023-09-12T12:41:56;99914.31;;;14.40;43.89
69737;BME280;64476;55.004;73.342;2023-09-12T12:48:13;99921.63;;;14.31;44.17
69737;BME280;64476;55.004;73.342;2023-09-12T12:51:20;99924.03;;;14.26;44.10
69737;BME280;64476;55.004;73.342;2023-09-12T12:54:23;99928.47;;;14.19;44.48
69737;BME280;64476;55.004;73.342;2023-09-12T12:57:24;99917.28;;;14.10;44.66
69737;BME280;64476;55.004;73.342;2023-09-12T13:00:25;99927.63;;;14.05;44.90
69737;BME280;64476;55.004;73.342;2023-09-12T13:03:27;99920.88;;;13.96;44.97
69737;BME280;64476;55.004;73.342;2023-09-12T13:06:28;99933.06;;;13.90;45.36
69737;BME280;64476;55.004;73.342;2023-09-12T13:09:31;99943.00;;;13.88;45.13
69737;BME280;64476;55.004;73.342;2023-09-12T13:12:32;99942.56;;;13.84;45.50
69737;BME280;64476;55.004;73.342;2023-09-12T13:15:37;99942.53;;;13.78;45.68
69737;BME280;64476;55.004;73.342;2023-09-12T13:18:39;99945.75;;;13.73;45.48
69737;BME280;64476;55.004;73.342;2023-09-12T13:21:41;99945.94;;;13.72;45.77
69737;BME280;64476;55.004;73.342;2023-09-12T13:24:43;99946.72;;;13.66;45.70
69737;BME280;64476;55.004;73.342;2023-09-12T13:27:44;99953.41;;;13.61;45.97
69737;BME280;64476;55.004;73.342;2023-09-12T13:30:48;99957.44;;;13.57;45.95
69737;BME280;64476;55.004;73.342;2023-09-12T13:33:50;99967.56;;;13.54;46.11
69737;BME280;64476;55.004;73.342;2023-09-12T13:36:52;99957.59;;;13.49;46.36
69737;BME280;64476;55.004;73.342;2023-09-12T13:39:54;99964.06;;;13.47;46.45
69737;BME280;64476;55.004;73.342;2023-09-12T13:42:55;99962.63;;;13.44;46.47
69737;BME280;64476;55.004;73.342;2023-09-12T13:46:00;99969.50;;;13.38;47.07
69737;BME280;64476;55.004;73.342;2023-09-12T13:49:01;99970.69;;;13.36;46.79
69737;BME280;64476;55.004;73.342;2023-09-12T13:52:04;99981.03;;;13.31;47.03
69737;BME280;64476;55.004;73.342;2023-09-12T13:55:05;99979.97;;;13.25;47.05
69737;BME280;64476;55.004;73.342;2023-09-12T13:58:07;99980.16;;;13.24;47.78
69737;BME280;64476;55.004;73.342;2023-09-12T14:01:08;99986.84;;;13.26;47.27
69737;BME280;64476;55.004;73.342;2023-09-12T14:04:10;99985.22;;;13.25;47.17
69737;BME280;64476;55.004;73.342;2023-09-12T14:07:11;99990.50;;;13.25;47.52
69737;BME280;64476;55.004;73.342;2023-09-12T14:13:56;99993.38;;;13.30;47.54
69737;BME280;64476;55.004;73.342;2023-09-12T14:17:32;99998.47;;;13.32;47.78
69737;BME280;64476;55.004;73.342;2023-09-12T14:20:37;100012.50;;;13.32;47.64
69737;BME280;64476;55.004;73.342;2023-09-12T14:23:39;100004.56;;;13.32;48.32
69737;BME280;64476;55.004;73.342;2023-09-12T14:26:40;100014.09;;;13.33;48.21
69737;BME280;64476;55.004;73.342;2023-09-12T14:29:41;100008.03;;;13.33;48.33
69737;BME280;64476;55.004;73.342;2023-09-12T14:32:46;100009.22;;;13.30;49.00
69737;BME280;64476;55.004;73.342;2023-09-12T14:35:47;100016.31;;;13.30;48.53
69737;BME280;64476;55.004;73.342;2023-09-12T14:38:54;100017.34;;;13.29;49.15
69737;BME280;64476;55.004;73.342;2023-09-12T14:41:56;100026.06;;;13.29;49.10
69737;BME280;64476;55.004;73.342;2023-09-12T14:44:58;100029.88;;;13.27;49.06
69737;BME280;64476;55.004;73.342;2023-09-12T14:48:00;100030.09;;;13.25;49.02
69737;BME280;64476;55.004;73.342;2023-09-12T14:51:01;100026.63;;;13.25;49.12
69737;BME280;64476;55.004;73.342;2023-09-12T14:54:03;100030.47;;;13.22;48.97
69737;BME280;64476;55.004;73.342;2023-09-12T14:57:37;100037.94;;;13.19;49.58
69737;BME280;64476;55.004;73.342;2023-09-12T15:00:44;100034.84;;;13.15;49.36
69737;BME280;64476;55.004;73.342;2023-09-12T15:04:17;100039.53;;;13.13;49.75
69737;BME280;64476;55.004;73.342;2023-09-12T15:07:18;100041.53;;;13.11;50.19
69737;BME280;64476;55.004;73.342;2023-09-12T15:10:58;100041.91;;;13.08;49.54
69737;BME280;64476;55.004;73.342;2023-09-12T15:17:32;100046.56;;;13.06;49.77
69737;BME280;64476;55.004;73.342;2023-09-12T15:20:33;100040.84;;;13.02;50.41
69737;BME280;64476;55.004;73.342;2023-09-12T15:23:57;100054.41;;;12.99;50.50
69737;BME280;64476;55.004;73.342;2023-09-12T15:26:58;100055.78;;;12.95;50.53
69737;BME280;64476;55.004;73.342;2023-09-12T15:29:59;100048.25;;;12.92;50.84
69737;BME280;64476;55.004;73.342;2023-09-12T15:33:04;100053.72;;;12.90;51.03
69737;BME280;64476;55.004;73.342;2023-09-12T15:36:06;100057.75;;;12.86;51.33
69737;BME280;64476;55.004;73.342;2023-09-12T15:39:07;100053.66;;;12.84;50.72
69737;BME280;64476;55.004;73.342;2023-09-12T15:42:08;100059.28;;;12.81;51.02
69737;BME280;64476;55.004;73.342;2023-09-12T15:45:10;100060.47;;;12.78;51.70
69737;BME280;64476;55.004;73.342;2023-09-12T15:48:12;100063.31;;;12.77;51.91
69737;BME280;64476;55.004;73.342;2023-09-12T15:51:14;100056.09;;;12.71;51.87
69737;BME280;64476;55.004;73.342;2023-09-12T15:57:49;100059.84;;;12.61;52.18
69737;BME280;64476;55.004;73.342;2023-09-12T16:00:51;100063.69;;;12.59;52.70
69737;BME280;64476;55.004;73.342;2023-09-12T16:03:54;100058.16;;;12.54;52.52
69737;BME280;64476;55.004;73.342;2023-09-12T16:07:28;100052.16;;;12.45;52.88
69737;BME280;64476;55.004;73.342;2023-09-12T16:14:02;100056.00;;;12.28;53.25
69737;BME280;64476;55.004;73.342;2023-09-12T16:17:05;100060.19;;;12.22;53.44
69737;BME280;64476;55.004;73.342;2023-09-12T16:23:41;100059.47;;;12.13;53.65
69737;BME280;64476;55.004;73.342;2023-09-12T16:26:42;100060.84;;;12.09;53.77
69737;BME280;64476;55.004;73.342;2023-09-12T16:29:43;100056.09;;;12.05;53.77
69737;BME280;64476;55.004;73.342;2023-09-12T16:32:44;100058.91;;;12.03;54.07
69737;BME280;64476;55.004;73.342;2023-09-12T16:35:46;100058.47;;;12.00;54.54
69737;BME280;64476;55.004;73.342;2023-09-12T16:38:54;100053.41;;;11.98;53.80
69737;BME280;64476;55.004;73.342;2023-09-12T16:41:56;100058.00;;;11.96;53.99
69737;BME280;64476;55.004;73.342;2023-09-12T16:45:33;100057.81;;;11.98;53.88
69737;BME280;64476;55.004;73.342;2023-09-12T16:48:35;100058.00;;;11.96;54.04
69737;BME280;64476;55.004;73.342;2023-09-12T16:51:41;100058.19;;;11.94;54.35
69737;BME280;64476;55.004;73.342;2023-09-12T16:54:43;100056.75;;;11.92;54.03
69737;BME280;64476;55.004;73.342;2023-09-12T16:57:44;100061.19;;;11.91;53.85
69737;BME280;64476;55.004;73.342;2023-09-12T17:00:45;100063.00;;;11.91;53.92
69737;BME280;64476;55.004;73.342;2023-09-12T17:03:59;100062.38;;;11.89;53.73